| time (UTC) | temp C | wind direction | speed KPH | gust KPH | rain 1hr cm | rain 24hr cm | rain mn cm | humidity % | barometer mb |
| 20260504151008 | 15 | 356 | 17.7 | 32.2 | 0.00 | 0.00 | 0.00 | 45 | 1003.1 |
| 20260504150512 | 15 | 359 | 16.1 | 29.0 | 0.00 | 0.00 | 0.00 | 44 | 1003.1 |
| 20260504141011 | 15 | 341 | 14.5 | 25.7 | 0.00 | 0.00 | 0.00 | 54 | 1002.5 |
| 20260504140510 | 15 | 18 | 16.1 | 24.1 | 0.00 | 0.00 | 0.00 | 55 | 1002.3 |
| 20260504130511 | 12 | 304 | 12.9 | 25.7 | 0.00 | 0.00 | 0.00 | 64 | 1001.7 |
| 20260504110509 | 12 | 224 | 4.8 | 12.9 | 0.00 | 0.00 | 0.00 | 57 | 1000.2 |
| 20260504100511 | 13 | 240 | 8.0 | 16.1 | 0.00 | 0.00 | 0.00 | 55 | 1000.9 |
| 20260504082007 | 13 | 255 | 8.0 | 20.9 | 0.00 | 0.00 | 0.00 | 48 | 1001.7 |
| 20260504081530 | 13 | 206 | 9.7 | 20.9 | 0.00 | 0.00 | 0.00 | 47 | 1001.9 |
| 20260504081008 | 13 | 252 | 9.7 | 16.1 | 0.00 | 0.00 | 0.00 | 48 | 1001.9 |
| 20260504080507 | 13 | 184 | 6.4 | 14.5 | 0.00 | 0.00 | 0.00 | 49 | 1002.1 |
| 20260504050507 | 11 | 0 | 0.0 | 0.0 | 0.00 | 0.00 | 0.00 | 57 | 1004.4 |
| 20260504045511 | 11 | 0 | 0.0 | 0.0 | 0.00 | 0.00 | 0.00 | 53 | 1004.4 |
| 20260504045008 | 11 | 0 | 0.0 | 0.0 | 0.00 | 0.00 | 0.00 | 54 | 1004.5 |
| 20260504044532 | 11 | 0 | 0.0 | 0.0 | 0.00 | 0.00 | 0.00 | 55 | 1004.5 |
| 20260504044009 | 11 | 0 | 0.0 | 0.0 | 0.00 | 0.00 | 0.00 | 52 | 1004.5 |
| 20260504043507 | 11 | 0 | 0.0 | 0.0 | 0.00 | 0.00 | 0.00 | 53 | 1004.6 |
| 20260504043027 | 11 | 0 | 0.0 | 0.0 | 0.00 | 0.00 | 0.00 | 54 | 1004.7 |
| 20260504042507 | 11 | 0 | 0.0 | 0.0 | 0.00 | 0.00 | 0.00 | 54 | 1004.8 |
| 20260504042007 | 12 | 0 | 0.0 | 0.0 | 0.00 | 0.00 | 0.00 | 52 | 1004.8 |
| 20260504041530 | 12 | 0 | 0.0 | 0.0 | 0.00 | 0.00 | 0.00 | 53 | 1005.0 |
| 20260504041011 | 12 | 0 | 0.0 | 0.0 | 0.00 | 0.00 | 0.00 | 51 | 1005.1 |
| 20260504040507 | 13 | 0 | 0.0 | 0.0 | 0.00 | 0.00 | 0.00 | 49 | 1005.2 |
| 20260504040029 | 13 | 0 | 0.0 | 1.6 | 0.00 | 0.00 | 0.00 | 47 | 1005.3 |
| 20260504035508 | 14 | 0 | 0.0 | 1.6 | 0.00 | 0.00 | 0.00 | 46 | 1005.3 |
| 20260504035008 | 14 | 0 | 0.0 | 0.0 | 0.00 | 0.00 | 0.00 | 46 | 1005.4 |
| 20260504034529 | 14 | 0 | 0.0 | 0.0 | 0.00 | 0.00 | 0.00 | 46 | 1005.5 |
| 20260504034007 | 14 | 0 | 0.0 | 3.2 | 0.00 | 0.00 | 0.00 | 46 | 1005.5 |
| 20260504033508 | 14 | 0 | 0.0 | 3.2 | 0.00 | 0.00 | 0.00 | 46 | 1005.6 |
| 20260504033028 | 14 | 234 | 0.0 | 1.6 | 0.00 | 0.00 | 0.00 | 46 | 1005.7 |
| 20260504032507 | 13 | 0 | 0.0 | 1.6 | 0.00 | 0.00 | 0.00 | 48 | 1005.8 |
| 20260504032012 | 13 | 0 | 0.0 | 0.0 | 0.00 | 0.00 | 0.00 | 48 | 1006.0 |
| 20260504031527 | 14 | 0 | 0.0 | 0.0 | 0.00 | 0.00 | 0.00 | 49 | 1006.1 |
| 20260504031007 | 14 | 0 | 0.0 | 0.0 | 0.00 | 0.00 | 0.00 | 47 | 1006.1 |
| 20260504030510 | 15 | 0 | 0.0 | 0.0 | 0.00 | 0.00 | 0.00 | 46 | 1006.1 |
| 20260504030039 | 15 | 0 | 0.0 | 0.0 | 0.00 | 0.00 | 0.00 | 46 | 1006.1 |
| 20260504025509 | 15 | 0 | 0.0 | 0.0 | 0.00 | 0.00 | 0.00 | 47 | 1006.2 |
| 20260504025010 | 15 | 0 | 0.0 | 0.0 | 0.00 | 0.00 | 0.00 | 44 | 1006.3 |
| 20260504024530 | 16 | 0 | 0.0 | 0.0 | 0.00 | 0.00 | 0.00 | 43 | 1006.3 |
| 20260504024010 | 16 | 0 | 0.0 | 0.0 | 0.00 | 0.00 | 0.00 | 43 | 1006.3 |
| 20260504023510 | 17 | 0 | 0.0 | 1.6 | 0.00 | 0.00 | 0.00 | 40 | 1006.3 |
| 20260504023031 | 17 | 0 | 0.0 | 3.2 | 0.00 | 0.00 | 0.00 | 39 | 1006.2 |
| 20260504022508 | 17 | 230 | 0.0 | 3.2 | 0.00 | 0.00 | 0.00 | 39 | 1006.3 |
| 20260504022011 | 17 | 264 | 0.0 | 3.2 | 0.00 | 0.00 | 0.00 | 39 | 1006.3 |
| 20260504021531 | 17 | 259 | 0.0 | 3.2 | 0.00 | 0.00 | 0.00 | 39 | 1006.4 |
| 20260504021008 | 17 | 220 | 0.0 | 3.2 | 0.00 | 0.00 | 0.00 | 38 | 1006.3 |
| 20260504020508 | 18 | 0 | 0.0 | 4.8 | 0.00 | 0.00 | 0.00 | 38 | 1006.2 |
| 20260504020026 | 18 | 240 | 1.6 | 4.8 | 0.00 | 0.00 | 0.00 | 38 | 1006.2 |
| 20260504015508 | 18 | 245 | 0.0 | 4.8 | 0.00 | 0.00 | 0.00 | 38 | 1006.2 |
| 20260504015011 | 18 | 0 | 0.0 | 6.4 | 0.00 | 0.00 | 0.00 | 37 | 1006.4 |
| 20260504014529 | 18 | 0 | 1.6 | 6.4 | 0.00 | 0.00 | 0.00 | 37 | 1006.4 |
| 20260504014011 | 18 | 45 | 0.0 | 6.4 | 0.00 | 0.00 | 0.00 | 36 | 1006.5 |
| 20260504013509 | 19 | 213 | 0.0 | 4.8 | 0.00 | 0.00 | 0.00 | 36 | 1006.4 |
| 20260504013029 | 19 | 240 | 0.0 | 4.8 | 0.00 | 0.00 | 0.00 | 35 | 1006.5 |
| 20260504012515 | 19 | 260 | 1.6 | 4.8 | 0.00 | 0.00 | 0.00 | 35 | 1006.5 |
| 20260504012017 | 19 | 260 | 1.6 | 9.7 | 0.00 | 0.00 | 0.00 | 35 | 1006.5 |
| 20260504011526 | 20 | 340 | 0.0 | 9.7 | 0.00 | 0.00 | 0.00 | 35 | 1006.5 |
| 20260504011008 | 20 | 246 | 3.2 | 9.7 | 0.00 | 0.00 | 0.00 | 34 | 1006.5 |
| 20260504010514 | 20 | 261 | 1.6 | 8.0 | 0.00 | 0.00 | 0.00 | 34 | 1006.5 |
| 20260504010026 | 20 | 221 | 1.6 | 8.0 | 0.00 | 0.00 | 0.00 | 35 | 1006.6 |
| 20260504005509 | 20 | 250 | 3.2 | 12.9 | 0.00 | 0.00 | 0.00 | 34 | 1006.6 |
| 20260504005007 | 20 | 264 | 3.2 | 14.5 | 0.00 | 0.00 | 0.00 | 34 | 1006.7 |
| 20260504004528 | 20 | 20 | 1.6 | 14.5 | 0.00 | 0.00 | 0.00 | 33 | 1006.7 |
| 20260504004011 | 20 | 297 | 3.2 | 17.7 | 0.00 | 0.00 | 0.00 | 33 | 1006.6 |
| 20260504003511 | 20 | 179 | 4.8 | 17.7 | 0.00 | 0.00 | 0.00 | 33 | 1006.6 |
| 20260504003030 | 20 | 322 | 8.0 | 16.1 | 0.00 | 0.00 | 0.00 | 34 | 1006.6 |
| 20260504002509 | 20 | 321 | 6.4 | 12.9 | 0.00 | 0.00 | 0.00 | 34 | 1006.5 |
| 20260504002010 | 21 | 316 | 4.8 | 12.9 | 0.00 | 0.00 | 0.00 | 32 | 1006.6 |
| 20260504001529 | 21 | 330 | 4.8 | 12.9 | 0.00 | 0.00 | 0.00 | 33 | 1006.7 |
| 20260504001008 | 21 | 333 | 3.2 | 11.3 | 0.00 | 0.00 | 0.00 | 34 | 1006.8 |
| 20260504000510 | 21 | 224 | 4.8 | 12.9 | 0.00 | 0.00 | 0.00 | 34 | 1006.7 |
| 20260504000030 | 21 | 250 | 6.4 | 16.1 | 0.00 | 0.00 | 0.00 | 33 | 1006.9 |
| 20260503235507 | 21 | 257 | 4.8 | 16.1 | 0.00 | 0.00 | 0.00 | 33 | 1006.9 |
| 20260503235007 | 21 | 186 | 6.4 | 16.1 | 0.00 | 0.00 | 0.00 | 34 | 1007.0 |
| 20260503234542 | 21 | 327 | 4.8 | 16.1 | 0.00 | 0.00 | 0.00 | 33 | 1007.0 |
| 20260503234011 | 21 | 326 | 6.4 | 16.1 | 0.00 | 0.00 | 0.00 | 34 | 1007.1 |
| 20260503233509 | 21 | 329 | 4.8 | 22.5 | 0.00 | 0.00 | 0.00 | 31 | 1007.1 |
| 20260503233026 | 21 | 256 | 4.8 | 22.5 | 0.00 | 0.00 | 0.00 | 32 | 1007.2 |
| 20260503232510 | 21 | 237 | 3.2 | 12.9 | 0.00 | 0.00 | 0.00 | 32 | 1007.3 |
| 20260503232010 | 21 | 15 | 4.8 | 12.9 | 0.00 | 0.00 | 0.00 | 31 | 1007.3 |
| 20260503231530 | 21 | 259 | 4.8 | 17.7 | 0.00 | 0.00 | 0.00 | 31 | 1007.4 |
| 20260503231013 | 21 | 236 | 4.8 | 17.7 | 0.00 | 0.00 | 0.00 | 32 | 1007.4 |
| 20260503230512 | 21 | 62 | 6.4 | 16.1 | 0.00 | 0.00 | 0.00 | 30 | 1007.4 |
| 20260503230030 | 21 | 311 | 4.8 | 14.5 | 0.00 | 0.00 | 0.00 | 32 | 1007.6 |
| 20260503225512 | 21 | 336 | 8.0 | 16.1 | 0.00 | 0.00 | 0.00 | 31 | 1007.6 |
| 20260503225012 | 21 | 223 | 4.8 | 16.1 | 0.00 | 0.00 | 0.00 | 32 | 1007.6 |
| 20260503224527 | 21 | 323 | 8.0 | 14.5 | 0.00 | 0.00 | 0.00 | 31 | 1007.7 |
| 20260503224007 | 21 | 356 | 4.8 | 14.5 | 0.00 | 0.00 | 0.00 | 33 | 1007.7 |
| 20260503223514 | 22 | 342 | 6.4 | 12.9 | 0.00 | 0.00 | 0.00 | 32 | 1007.8 |
| 20260503223028 | 22 | 314 | 4.8 | 16.1 | 0.00 | 0.00 | 0.00 | 35 | 1007.9 |
| 20260503222509 | 22 | 335 | 6.4 | 16.1 | 0.00 | 0.00 | 0.00 | 32 | 1007.9 |
| 20260503222011 | 21 | 331 | 0.0 | 20.9 | 0.00 | 0.00 | 0.00 | 33 | 1008.0 |
| 20260503221528 | 21 | 348 | 9.7 | 24.1 | 0.00 | 0.00 | 0.00 | 32 | 1008.0 |
| 20260503221013 | 21 | 356 | 9.7 | 24.1 | 0.00 | 0.00 | 0.00 | 32 | 1008.0 |
| 20260503220510 | 22 | 302 | 6.4 | 14.5 | 0.00 | 0.00 | 0.00 | 32 | 1008.1 |
| 20260503220042 | 21 | 37 | 4.8 | 19.3 | 0.00 | 0.00 | 0.00 | 34 | 1008.2 |
| 20260503215509 | 21 | 2 | 8.0 | 19.3 | 0.00 | 0.00 | 0.00 | 31 | 1008.2 |
| 20260503215010 | 21 | 8 | 9.7 | 19.3 | 0.00 | 0.00 | 0.00 | 32 | 1008.2 |
| 20260503214530 | 21 | 336 | 9.7 | 20.9 | 0.00 | 0.00 | 0.00 | 34 | 1008.3 |
| 20260503214011 | 21 | 320 | 11.3 | 20.9 | 0.00 | 0.00 | 0.00 | 33 | 1008.3 |
| 20260503213514 | 22 | 334 | 3.2 | 17.7 | 0.00 | 0.00 | 0.00 | 34 | 1008.5 |
| 20260503213029 | 22 | 196 | 4.8 | 22.5 | 0.00 | 0.00 | 0.00 | 35 | 1008.4 |
| 20260503212511 | 21 | 294 | 9.7 | 22.5 | 0.00 | 0.00 | 0.00 | 34 | 1008.6 |
| 20260503212015 | 21 | 314 | 4.8 | 14.5 | 0.00 | 0.00 | 0.00 | 36 | 1008.6 |
| 20260503211528 | 21 | 313 | 8.0 | 16.1 | 0.00 | 0.00 | 0.00 | 34 | 1008.8 |
| 20260503211015 | 21 | 301 | 8.0 | 17.7 | 0.00 | 0.00 | 0.00 | 33 | 1008.8 |
| 20260503210510 | 21 | 317 | 3.2 | 17.7 | 0.00 | 0.00 | 0.00 | 35 | 1008.9 |
| 20260503210028 | 21 | 326 | 9.7 | 19.3 | 0.00 | 0.00 | 0.00 | 35 | 1008.9 |
| 20260503205511 | 21 | 335 | 9.7 | 19.3 | 0.00 | 0.00 | 0.00 | 35 | 1009.0 |
| 20260503205011 | 21 | 309 | 6.4 | 27.4 | 0.00 | 0.00 | 0.00 | 34 | 1009.1 |
| 20260503204528 | 21 | 299 | 14.5 | 27.4 | 0.00 | 0.00 | 0.00 | 33 | 1009.2 |
| 20260503204014 | 21 | 329 | 11.3 | 17.7 | 0.00 | 0.00 | 0.00 | 34 | 1009.2 |
| 20260503203510 | 21 | 327 | 6.4 | 20.9 | 0.00 | 0.00 | 0.00 | 37 | 1009.3 |
| 20260503203031 | 21 | 352 | 11.3 | 20.9 | 0.00 | 0.00 | 0.00 | 34 | 1009.5 |
| 20260503202512 | 21 | 326 | 11.3 | 24.1 | 0.00 | 0.00 | 0.00 | 33 | 1009.5 |
| 20260503202011 | 21 | 283 | 9.7 | 24.1 | 0.00 | 0.00 | 0.00 | 36 | 1009.5 |
| 20260503201530 | 21 | 1 | 12.9 | 24.1 | 0.00 | 0.00 | 0.00 | 37 | 1009.5 |
| 20260503201011 | 21 | 30 | 9.7 | 24.1 | 0.00 | 0.00 | 0.00 | 37 | 1009.7 |
| 20260503200510 | 21 | 329 | 9.7 | 19.3 | 0.00 | 0.00 | 0.00 | 37 | 1009.7 |
| 20260503200028 | 21 | 333 | 8.0 | 27.4 | 0.00 | 0.00 | 0.00 | 37 | 1009.8 |
| 20260503195512 | 21 | 300 | 12.9 | 27.4 | 0.00 | 0.00 | 0.00 | 37 | 1009.8 |
| 20260503195012 | 21 | 324 | 9.7 | 19.3 | 0.00 | 0.00 | 0.00 | 36 | 1009.8 |
| 20260503194528 | 21 | 325 | 11.3 | 19.3 | 0.00 | 0.00 | 0.00 | 36 | 1009.8 |
| 20260503194007 | 21 | 352 | 12.9 | 19.3 | 0.00 | 0.00 | 0.00 | 35 | 1009.8 |
| 20260503193513 | 21 | 292 | 6.4 | 24.1 | 0.00 | 0.00 | 0.00 | 37 | 1009.8 |
| 20260503193033 | 21 | 352 | 11.3 | 24.1 | 0.00 | 0.00 | 0.00 | 36 | 1010.0 |
| 20260503192506 | 20 | 327 | 12.9 | 24.1 | 0.00 | 0.00 | 0.00 | 35 | 1010.0 |
| 20260503192010 | 20 | 8 | 11.3 | 22.5 | 0.00 | 0.00 | 0.00 | 34 | 1010.0 |
| 20260503191527 | 20 | 293 | 12.9 | 25.7 | 0.00 | 0.00 | 0.00 | 36 | 1010.2 |
| 20260503191009 | 20 | 332 | 12.9 | 25.7 | 0.00 | 0.00 | 0.00 | 38 | 1010.2 |
| 20260503190508 | 20 | 330 | 14.5 | 25.7 | 0.00 | 0.00 | 0.00 | 35 | 1010.2 |
| 20260503190030 | 21 | 340 | 12.9 | 29.0 | 0.00 | 0.00 | 0.00 | 36 | 1010.3 |
| 20260503185510 | 21 | 322 | 8.0 | 29.0 | 0.00 | 0.00 | 0.00 | 37 | 1010.3 |
| 20260503185007 | 20 | 330 | 14.5 | 29.0 | 0.00 | 0.00 | 0.00 | 37 | 1010.4 |
| 20260503184527 | 20 | 356 | 9.7 | 19.3 | 0.00 | 0.00 | 0.00 | 37 | 1010.4 |
| 20260503184012 | 20 | 306 | 11.3 | 22.5 | 0.00 | 0.00 | 0.00 | 36 | 1010.5 |
| 20260503183510 | 20 | 354 | 11.3 | 22.5 | 0.00 | 0.00 | 0.00 | 36 | 1010.6 |
| 20260503183044 | 20 | 333 | 11.3 | 30.6 | 0.00 | 0.00 | 0.00 | 36 | 1010.6 |
| 20260503182509 | 20 | 264 | 11.3 | 30.6 | 0.00 | 0.00 | 0.00 | 36 | 1010.7 |
| 20260503182011 | 20 | 325 | 11.3 | 27.4 | 0.00 | 0.00 | 0.00 | 40 | 1010.8 |
| 20260503181529 | 20 | 319 | 9.7 | 24.1 | 0.00 | 0.00 | 0.00 | 38 | 1010.9 |
| 20260503181012 | 20 | 316 | 14.5 | 25.7 | 0.00 | 0.00 | 0.00 | 42 | 1010.9 |
| 20260503180508 | 20 | 323 | 14.5 | 25.7 | 0.00 | 0.00 | 0.00 | 36 | 1011.0 |
| 20260503180028 | 20 | 41 | 9.7 | 20.9 | 0.00 | 0.00 | 0.00 | 40 | 1011.1 |
| 20260503175509 | 20 | 318 | 12.9 | 20.9 | 0.00 | 0.00 | 0.00 | 39 | 1011.2 |
| 20260503175008 | 20 | 329 | 9.7 | 19.3 | 0.00 | 0.00 | 0.00 | 40 | 1011.2 |
| 20260503174527 | 20 | 293 | 11.3 | 22.5 | 0.00 | 0.00 | 0.00 | 39 | 1011.2 |
| 20260503174011 | 20 | 25 | 12.9 | 25.7 | 0.00 | 0.00 | 0.00 | 40 | 1011.3 |
| 20260503173510 | 20 | 334 | 12.9 | 25.7 | 0.00 | 0.00 | 0.00 | 41 | 1011.3 |
| 20260503173028 | 19 | 354 | 16.1 | 25.7 | 0.00 | 0.00 | 0.00 | 41 | 1011.4 |
| 20260503172510 | 19 | 340 | 14.5 | 30.6 | 0.00 | 0.00 | 0.00 | 39 | 1011.4 |
| 20260503172010 | 19 | 297 | 14.5 | 30.6 | 0.00 | 0.00 | 0.00 | 40 | 1011.4 |
| 20260503171528 | 19 | 10 | 16.1 | 25.7 | 0.00 | 0.00 | 0.00 | 41 | 1011.4 |
| 20260503171010 | 19 | 326 | 17.7 | 30.6 | 0.00 | 0.00 | 0.00 | 42 | 1011.4 |
| 20260503170511 | 19 | 326 | 14.5 | 30.6 | 0.00 | 0.00 | 0.00 | 42 | 1011.4 |